sensor_id;sensor_type;location;lat;lon;timestamp;pressure;altitude;pressure_sealevel;temperature;humidity
68807;BME280;55800;54.272;18.558;2023-06-24T00:01:42;101171.91;;;17.29;60.45
68807;BME280;55800;54.272;18.558;2023-06-24T00:04:13;101175.59;;;17.28;60.63
68807;BME280;55800;54.272;18.558;2023-06-24T00:06:45;101179.06;;;17.30;60.94
68807;BME280;55800;54.272;18.558;2023-06-24T00:09:14;101175.50;;;17.29;60.15
68807;BME280;55800;54.272;18.558;2023-06-24T00:11:43;101180.78;;;17.31;60.90
68807;BME280;55800;54.272;18.558;2023-06-24T00:14:13;101180.78;;;17.31;61.21
68807;BME280;55800;54.272;18.558;2023-06-24T00:16:44;101172.41;;;17.35;60.37
68807;BME280;55800;54.272;18.558;2023-06-24T00:19:15;101168.94;;;17.33;61.83
68807;BME280;55800;54.272;18.558;2023-06-24T00:21:47;101172.41;;;17.35;60.98
68807;BME280;55800;54.272;18.558;2023-06-24T00:24:17;101164.22;;;17.37;60.59
68807;BME280;55800;54.272;18.558;2023-06-24T00:26:47;101166.81;;;17.38;60.71
68807;BME280;55800;54.272;18.558;2023-06-24T00:29:17;101161.53;;;17.37;61.30
68807;BME280;55800;54.272;18.558;2023-06-24T00:31:46;101162.38;;;17.37;61.91
68807;BME280;55800;54.272;18.558;2023-06-24T00:34:17;101165.94;;;17.38;61.73
68807;BME280;55800;54.272;18.558;2023-06-24T00:36:48;101173.13;;;17.39;61.70
68807;BME280;55800;54.272;18.558;2023-06-24T00:39:19;101169.44;;;17.40;61.47
68807;BME280;55800;54.272;18.558;2023-06-24T00:41:49;101173.88;;;17.41;61.18
68807;BME280;55800;54.272;18.558;2023-06-24T00:44:18;101180.06;;;17.43;61.59
68807;BME280;55800;54.272;18.558;2023-06-24T00:46:48;101182.78;;;17.43;61.79
68807;BME280;55800;54.272;18.558;2023-06-24T00:49:19;101181.13;;;17.40;63.12
68807;BME280;55800;54.272;18.558;2023-06-24T00:51:48;101172.13;;;17.40;62.04
68807;BME280;55800;54.272;18.558;2023-06-24T00:54:18;101186.63;;;17.39;62.66
68807;BME280;55800;54.272;18.558;2023-06-24T00:56:48;101182.16;;;17.38;62.21
68807;BME280;55800;54.272;18.558;2023-06-24T00:59:18;101190.28;;;17.38;62.26
68807;BME280;55800;54.272;18.558;2023-06-24T01:01:48;101190.19;;;17.39;61.67
68807;BME280;55800;54.272;18.558;2023-06-24T01:04:19;101188.34;;;17.40;61.66
68807;BME280;55800;54.272;18.558;2023-06-24T01:06:49;101189.22;;;17.40;62.31
68807;BME280;55800;54.272;18.558;2023-06-24T01:09:18;101181.13;;;17.40;61.54
68807;BME280;55800;54.272;18.558;2023-06-24T01:11:47;101180.06;;;17.43;60.68
68807;BME280;55800;54.272;18.558;2023-06-24T01:14:16;101182.78;;;17.43;62.25
68807;BME280;55800;54.272;18.558;2023-06-24T01:16:54;101177.53;;;17.40;60.25
68807;BME280;55800;54.272;18.558;2023-06-24T01:22:37;101173.78;;;17.42;60.87
68807;BME280;55800;54.272;18.558;2023-06-24T01:25:25;101168.56;;;17.39;62.05
68807;BME280;55800;54.272;18.558;2023-06-24T01:28:19;101169.44;;;17.40;61.38
68807;BME280;55800;54.272;18.558;2023-06-24T01:31:00;101174.94;;;17.38;61.68
68807;BME280;55800;54.272;18.558;2023-06-24T01:33:42;101167.88;;;17.36;61.62
68807;BME280;55800;54.272;18.558;2023-06-24T01:36:14;101165.06;;;17.37;62.37
68807;BME280;55800;54.272;18.558;2023-06-24T01:38:48;101161.59;;;17.35;63.60
68807;BME280;55800;54.272;18.558;2023-06-24T01:41:24;101161.59;;;17.35;62.44
68807;BME280;55800;54.272;18.558;2023-06-24T01:43:55;101160.66;;;17.36;60.49
68807;BME280;55800;54.272;18.558;2023-06-24T01:46:26;101167.78;;;17.37;60.58
68807;BME280;55800;54.272;18.558;2023-06-24T01:49:01;101162.47;;;17.36;61.25
68807;BME280;55800;54.272;18.558;2023-06-24T01:51:32;101169.63;;;17.37;62.53
68807;BME280;55800;54.272;18.558;2023-06-24T01:54:07;101177.63;;;17.38;61.92
68807;BME280;55800;54.272;18.558;2023-06-24T01:56:40;101170.31;;;17.40;60.95
68807;BME280;55800;54.272;18.558;2023-06-24T01:59:11;101162.47;;;17.36;59.85
68807;BME280;55800;54.272;18.558;2023-06-24T02:01:41;101159.00;;;17.34;59.91
68807;BME280;55800;54.272;18.558;2023-06-24T02:04:13;101169.97;;;17.31;60.56
68807;BME280;55800;54.272;18.558;2023-06-24T02:06:44;101161.09;;;17.29;58.84
68807;BME280;55800;54.272;18.558;2023-06-24T02:09:17;101164.78;;;17.28;58.62
68807;BME280;55800;54.272;18.558;2023-06-24T02:11:47;101177.53;;;17.26;58.29
68807;BME280;55800;54.272;18.558;2023-06-24T02:14:18;101175.38;;;17.31;59.82
68807;BME280;55800;54.272;18.558;2023-06-24T02:16:48;101180.63;;;17.34;58.83
68807;BME280;55800;54.272;18.558;2023-06-24T02:19:20;101170.97;;;17.30;58.39
68807;BME280;55800;54.272;18.558;2023-06-24T02:21:50;101175.88;;;17.37;59.15
68807;BME280;55800;54.272;18.558;2023-06-24T02:24:22;101177.91;;;17.34;58.53
68807;BME280;55800;54.272;18.558;2023-06-24T02:26:52;101181.66;;;17.31;58.13
68807;BME280;55800;54.272;18.558;2023-06-24T02:29:24;101186.41;;;17.28;58.04
68807;BME280;55800;54.272;18.558;2023-06-24T02:31:54;101190.94;;;17.27;58.20
68807;BME280;55800;54.272;18.558;2023-06-24T02:34:26;101195.47;;;17.27;57.68
68807;BME280;55800;54.272;18.558;2023-06-24T02:36:55;101198.25;;;17.25;58.00
68807;BME280;55800;54.272;18.558;2023-06-24T02:39:24;101206.25;;;17.27;58.35
68807;BME280;55800;54.272;18.558;2023-06-24T02:41:53;101199.41;;;17.21;57.12
68807;BME280;55800;54.272;18.558;2023-06-24T02:44:23;101208.56;;;17.18;58.11
68807;BME280;55800;54.272;18.558;2023-06-24T02:46:52;101209.63;;;17.16;57.84
68807;BME280;55800;54.272;18.558;2023-06-24T02:49:22;101212.50;;;17.13;58.84
68807;BME280;55800;54.272;18.558;2023-06-24T02:51:53;101210.75;;;17.12;57.81
68807;BME280;55800;54.272;18.558;2023-06-24T02:54:23;101223.22;;;17.14;58.65
68807;BME280;55800;54.272;18.558;2023-06-24T02:57:11;101223.91;;;17.18;58.35
68807;BME280;55800;54.272;18.558;2023-06-24T03:00:02;101228.63;;;17.14;60.92
68807;BME280;55800;54.272;18.558;2023-06-24T03:02:48;101232.47;;;17.10;59.18
68807;BME280;55800;54.272;18.558;2023-06-24T03:05:18;101226.09;;;17.11;59.91
68807;BME280;55800;54.272;18.558;2023-06-24T03:07:49;101231.50;;;17.11;61.25
68807;BME280;55800;54.272;18.558;2023-06-24T03:10:23;101237.88;;;17.10;60.13
68807;BME280;55800;54.272;18.558;2023-06-24T03:12:53;101230.72;;;17.09;61.58
68807;BME280;55800;54.272;18.558;2023-06-24T03:15:29;101234.50;;;17.07;61.45
68807;BME280;55800;54.272;18.558;2023-06-24T03:18:02;101233.53;;;17.08;60.87
68807;BME280;55800;54.272;18.558;2023-06-24T03:20:32;101240.16;;;17.02;61.33
68807;BME280;55800;54.272;18.558;2023-06-24T03:23:12;101239.47;;;16.99;60.05
68807;BME280;55800;54.272;18.558;2023-06-24T03:25:42;101242.34;;;16.96;60.14
68807;BME280;55800;54.272;18.558;2023-06-24T03:28:11;101240.69;;;16.93;59.06
68807;BME280;55800;54.272;18.558;2023-06-24T03:30:46;101248.81;;;16.93;59.28
68807;BME280;55800;54.272;18.558;2023-06-24T03:33:19;101250.72;;;16.91;58.65
68807;BME280;55800;54.272;18.558;2023-06-24T03:35:49;101249.75;;;16.92;60.55
68807;BME280;55800;54.272;18.558;2023-06-24T03:38:22;101256.13;;;16.91;60.04
68807;BME280;55800;54.272;18.558;2023-06-24T03:40:52;101257.06;;;16.90;63.12
68807;BME280;55800;54.272;18.558;2023-06-24T03:43:21;101260.91;;;16.86;61.82
68807;BME280;55800;54.272;18.558;2023-06-24T03:45:51;101264.38;;;16.88;61.29
68807;BME280;55800;54.272;18.558;2023-06-24T03:48:20;101256.22;;;16.90;60.65
68807;BME280;55800;54.272;18.558;2023-06-24T03:50:50;101270.16;;;16.98;61.75
68807;BME280;55800;54.272;18.558;2023-06-24T03:53:22;101261.94;;;16.99;63.15
68807;BME280;55800;54.272;18.558;2023-06-24T03:55:52;101266.03;;;17.06;63.13
68807;BME280;55800;54.272;18.558;2023-06-24T03:58:21;101264.13;;;17.08;64.85
68807;BME280;55800;54.272;18.558;2023-06-24T04:00:50;101263.75;;;17.14;64.42
68807;BME280;55800;54.272;18.558;2023-06-24T04:03:19;101262.44;;;17.22;64.54
68807;BME280;55800;54.272;18.558;2023-06-24T04:05:49;101268.00;;;17.18;65.29
68807;BME280;55800;54.272;18.558;2023-06-24T04:08:23;101261.28;;;17.26;63.61
68807;BME280;55800;54.272;18.558;2023-06-24T04:10:57;101257.56;;;17.28;63.98
68807;BME280;55800;54.272;18.558;2023-06-24T04:13:27;101253.97;;;17.28;63.42
68807;BME280;55800;54.272;18.558;2023-06-24T04:15:57;101260.94;;;17.32;64.02
68807;BME280;55800;54.272;18.558;2023-06-24T04:18:27;101260.16;;;17.30;65.22
68807;BME280;55800;54.272;18.558;2023-06-24T04:20:57;101264.59;;;17.31;65.23
68807;BME280;55800;54.272;18.558;2023-06-24T04:23:27;101262.59;;;17.34;64.85
68807;BME280;55800;54.272;18.558;2023-06-24T04:25:57;101262.00;;;17.43;63.67
68807;BME280;55800;54.272;18.558;2023-06-24T04:28:26;101267.41;;;17.43;65.20
68807;BME280;55800;54.272;18.558;2023-06-24T04:30:55;101258.19;;;17.47;64.64
68807;BME280;55800;54.272;18.558;2023-06-24T04:33:25;101266.38;;;17.46;66.17
68807;BME280;55800;54.272;18.558;2023-06-24T04:35:55;101268.03;;;17.48;66.07
68807;BME280;55800;54.272;18.558;2023-06-24T04:38:26;101276.84;;;17.52;65.62
68807;BME280;55800;54.272;18.558;2023-06-24T04:40:56;101268.09;;;17.62;64.57
68807;BME280;55800;54.272;18.558;2023-06-24T04:43:27;101272.38;;;17.66;66.31
68807;BME280;55800;54.272;18.558;2023-06-24T04:45:56;101268.25;;;17.75;65.38
68807;BME280;55800;54.272;18.558;2023-06-24T04:48:26;101273.28;;;17.81;66.13
68807;BME280;55800;54.272;18.558;2023-06-24T04:50:55;101267.38;;;17.88;65.48
68807;BME280;55800;54.272;18.558;2023-06-24T04:53:27;101272.31;;;17.96;65.20
68807;BME280;55800;54.272;18.558;2023-06-24T04:55:57;101278.31;;;18.01;65.25
68807;BME280;55800;54.272;18.558;2023-06-24T04:58:26;101279.84;;;18.05;65.35
68807;BME280;55800;54.272;18.558;2023-06-24T05:00:55;101275.03;;;18.10;65.22
68807;BME280;55800;54.272;18.558;2023-06-24T05:03:24;101279.56;;;18.10;65.35
68807;BME280;55800;54.272;18.558;2023-06-24T05:05:54;101281.59;;;18.06;65.59
68807;BME280;55800;54.272;18.558;2023-06-24T05:08:23;101282.38;;;18.08;65.79
68807;BME280;55800;54.272;18.558;2023-06-24T05:10:54;101280.94;;;18.17;65.08
68807;BME280;55800;54.272;18.558;2023-06-24T05:13:23;101283.53;;;18.18;65.15
68807;BME280;55800;54.272;18.558;2023-06-24T05:15:53;101287.78;;;18.22;65.24
68807;BME280;55800;54.272;18.558;2023-06-24T05:18:21;101285.78;;;18.26;65.49
68807;BME280;55800;54.272;18.558;2023-06-24T05:20:51;101281.63;;;18.34;64.59
68807;BME280;55800;54.272;18.558;2023-06-24T05:23:20;101273.09;;;18.40;65.01
68807;BME280;55800;54.272;18.558;2023-06-24T05:25:49;101287.22;;;18.45;64.83
68807;BME280;55800;54.272;18.558;2023-06-24T05:28:20;101284.53;;;18.45;64.84
68807;BME280;55800;54.272;18.558;2023-06-24T05:30:49;101293.41;;;18.47;65.02
68807;BME280;55800;54.272;18.558;2023-06-24T05:33:18;101285.28;;;18.47;65.21
68807;BME280;55800;54.272;18.558;2023-06-24T05:35:47;101280.66;;;18.49;65.13
68807;BME280;55800;54.272;18.558;2023-06-24T05:38:18;101284.94;;;18.53;64.97
68807;BME280;55800;54.272;18.558;2023-06-24T05:40:47;101279.13;;;18.59;65.03
68807;BME280;55800;54.272;18.558;2023-06-24T05:43:16;101282.38;;;18.64;64.71
68807;BME280;55800;54.272;18.558;2023-06-24T05:45:47;101278.13;;;18.75;64.80
68807;BME280;55800;54.272;18.558;2023-06-24T05:48:16;101280.44;;;18.81;64.74
68807;BME280;55800;54.272;18.558;2023-06-24T05:50:45;101271.91;;;18.87;64.63
68807;BME280;55800;54.272;18.558;2023-06-24T05:53:14;101274.78;;;18.98;65.01
68807;BME280;55800;54.272;18.558;2023-06-24T05:55:43;101277.44;;;19.12;65.03
68807;BME280;55800;54.272;18.558;2023-06-24T05:58:12;101271.41;;;19.21;64.27
68807;BME280;55800;54.272;18.558;2023-06-24T06:00:43;101269.69;;;19.32;64.42
68807;BME280;55800;54.272;18.558;2023-06-24T06:03:13;101264.75;;;19.39;64.03
68807;BME280;55800;54.272;18.558;2023-06-24T06:05:43;101266.72;;;19.50;64.17
68807;BME280;55800;54.272;18.558;2023-06-24T06:08:12;101259.28;;;19.66;63.82
68807;BME280;55800;54.272;18.558;2023-06-24T06:10:41;101248.44;;;19.78;63.83
68807;BME280;55800;54.272;18.558;2023-06-24T06:13:12;101252.25;;;19.88;63.34
68807;BME280;55800;54.272;18.558;2023-06-24T06:15:41;101264.19;;;19.98;62.81
68807;BME280;55800;54.272;18.558;2023-06-24T06:18:11;101260.28;;;20.02;62.60
68807;BME280;55800;54.272;18.558;2023-06-24T06:20:42;101267.88;;;20.10;62.55
68807;BME280;55800;54.272;18.558;2023-06-24T06:23:11;101277.03;;;20.21;62.56
68807;BME280;55800;54.272;18.558;2023-06-24T06:25:40;101284.53;;;20.31;61.96
68807;BME280;55800;54.272;18.558;2023-06-24T06:28:09;101273.75;;;20.42;61.37
68807;BME280;55800;54.272;18.558;2023-06-24T06:30:39;101281.47;;;20.48;61.38
68807;BME280;55800;54.272;18.558;2023-06-24T06:33:08;101281.75;;;20.56;61.18
68807;BME280;55800;54.272;18.558;2023-06-24T06:35:38;101281.84;;;20.67;60.58
68807;BME280;55800;54.272;18.558;2023-06-24T06:38:08;101281.06;;;20.77;60.23
68807;BME280;55800;54.272;18.558;2023-06-24T06:40:37;101278.00;;;20.82;60.29
68807;BME280;55800;54.272;18.558;2023-06-24T06:43:07;101279.53;;;20.86;60.26
68807;BME280;55800;54.272;18.558;2023-06-24T06:45:36;101284.97;;;20.86;60.11
68807;BME280;55800;54.272;18.558;2023-06-24T06:48:06;101287.69;;;20.86;60.15
68807;BME280;55800;54.272;18.558;2023-06-24T06:50:36;101288.44;;;20.88;60.05
68807;BME280;55800;54.272;18.558;2023-06-24T06:53:05;101281.44;;;20.96;60.02
68807;BME280;55800;54.272;18.558;2023-06-24T06:55:36;101284.50;;;21.05;59.80
68807;BME280;55800;54.272;18.558;2023-06-24T06:58:07;101286.19;;;21.18;59.69
68807;BME280;55800;54.272;18.558;2023-06-24T07:00:36;101288.16;;;21.16;59.48
68807;BME280;55800;54.272;18.558;2023-06-24T07:03:05;101287.03;;;21.19;59.55
68807;BME280;55800;54.272;18.558;2023-06-24T07:05:35;101289.66;;;21.20;59.46
68807;BME280;55800;54.272;18.558;2023-06-24T07:08:06;101287.44;;;21.25;59.26
68807;BME280;55800;54.272;18.558;2023-06-24T07:10:37;101295.16;;;21.31;59.12
68807;BME280;55800;54.272;18.558;2023-06-24T07:13:06;101286.00;;;21.32;58.77
68807;BME280;55800;54.272;18.558;2023-06-24T07:15:35;101287.50;;;21.36;58.25
68807;BME280;55800;54.272;18.558;2023-06-24T07:18:05;101292.06;;;21.36;58.29
68807;BME280;55800;54.272;18.558;2023-06-24T07:20:34;101287.56;;;21.47;58.11
68807;BME280;55800;54.272;18.558;2023-06-24T07:23:03;101286.56;;;21.48;58.09
68807;BME280;55800;54.272;18.558;2023-06-24T07:25:33;101281.41;;;21.56;57.95
68807;BME280;55800;54.272;18.558;2023-06-24T07:28:05;101288.22;;;21.62;57.70
68807;BME280;55800;54.272;18.558;2023-06-24T07:30:34;101291.00;;;21.73;58.09
68807;BME280;55800;54.272;18.558;2023-06-24T07:33:03;101300.66;;;21.77;57.52
68807;BME280;55800;54.272;18.558;2023-06-24T07:35:33;101287.34;;;21.85;57.62
68807;BME280;55800;54.272;18.558;2023-06-24T07:38:03;101291.19;;;21.94;57.23
68807;BME280;55800;54.272;18.558;2023-06-24T07:40:32;101296.53;;;22.06;57.51
68807;BME280;55800;54.272;18.558;2023-06-24T07:43:01;101289.38;;;22.16;57.33
68807;BME280;55800;54.272;18.558;2023-06-24T07:45:32;101289.66;;;22.24;56.78
68807;BME280;55800;54.272;18.558;2023-06-24T07:48:02;101286.31;;;22.32;56.56
68807;BME280;55800;54.272;18.558;2023-06-24T07:50:33;101292.13;;;22.38;56.59
68807;BME280;55800;54.272;18.558;2023-06-24T07:53:02;101285.06;;;22.47;56.20
68807;BME280;55800;54.272;18.558;2023-06-24T07:55:32;101287.81;;;22.58;56.41
68807;BME280;55800;54.272;18.558;2023-06-24T07:58:01;101293.25;;;22.69;56.04
68807;BME280;55800;54.272;18.558;2023-06-24T08:00:34;101291.53;;;22.79;55.98
68807;BME280;55800;54.272;18.558;2023-06-24T08:03:06;101289.03;;;22.87;55.81
68807;BME280;55800;54.272;18.558;2023-06-24T08:05:36;101295.72;;;22.94;55.02
68807;BME280;55800;54.272;18.558;2023-06-24T08:08:07;101300.41;;;23.03;54.51
68807;BME280;55800;54.272;18.558;2023-06-24T08:10:37;101301.41;;;23.13;53.92
68807;BME280;55800;54.272;18.558;2023-06-24T08:13:06;101299.75;;;23.22;53.60
68807;BME280;55800;54.272;18.558;2023-06-24T08:15:37;101308.78;;;23.34;53.29
68807;BME280;55800;54.272;18.558;2023-06-24T08:18:09;101307.16;;;23.42;52.02
68807;BME280;55800;54.272;18.558;2023-06-24T08:20:39;101295.19;;;23.54;53.04
68807;BME280;55800;54.272;18.558;2023-06-24T08:23:08;101309.66;;;23.66;52.38
68807;BME280;55800;54.272;18.558;2023-06-24T08:25:38;101307.50;;;23.80;53.19
68807;BME280;55800;54.272;18.558;2023-06-24T08:28:07;101312.28;;;23.88;51.23
68807;BME280;55800;54.272;18.558;2023-06-24T08:30:37;101318.94;;;23.95;51.47
68807;BME280;55800;54.272;18.558;2023-06-24T08:33:07;101318.69;;;23.98;49.94
68807;BME280;55800;54.272;18.558;2023-06-24T08:35:41;101326.09;;;24.07;51.24
68807;BME280;55800;54.272;18.558;2023-06-24T08:38:10;101324.78;;;24.22;51.50
68807;BME280;55800;54.272;18.558;2023-06-24T08:40:39;101326.16;;;24.37;51.05
68807;BME280;55800;54.272;18.558;2023-06-24T08:43:09;101323.91;;;24.42;49.69
68807;BME280;55800;54.272;18.558;2023-06-24T08:45:40;101335.56;;;24.44;49.55
68807;BME280;55800;54.272;18.558;2023-06-24T08:48:09;101322.94;;;24.53;50.23
68807;BME280;55800;54.272;18.558;2023-06-24T08:50:43;101333.91;;;24.62;49.83
68807;BME280;55800;54.272;18.558;2023-06-24T08:53:14;101329.38;;;24.72;48.93
68807;BME280;55800;54.272;18.558;2023-06-24T08:55:45;101328.13;;;24.76;49.21
68807;BME280;55800;54.272;18.558;2023-06-24T08:58:15;101334.34;;;24.88;48.61
68807;BME280;55800;54.272;18.558;2023-06-24T09:00:45;101341.03;;;25.05;48.81
68807;BME280;55800;54.272;18.558;2023-06-24T09:03:15;101342.50;;;25.18;49.02
68807;BME280;55800;54.272;18.558;2023-06-24T09:05:44;101337.34;;;25.25;48.46
68807;BME280;55800;54.272;18.558;2023-06-24T09:08:13;101338.53;;;25.32;47.64
68807;BME280;55800;54.272;18.558;2023-06-24T09:10:44;101336.94;;;25.39;48.20
68807;BME280;55800;54.272;18.558;2023-06-24T09:13:13;101337.88;;;25.49;48.97
68807;BME280;55800;54.272;18.558;2023-06-24T09:15:42;101336.25;;;25.56;48.55
68807;BME280;55800;54.272;18.558;2023-06-24T09:18:14;101327.19;;;25.65;48.89
68807;BME280;55800;54.272;18.558;2023-06-24T09:20:46;101335.41;;;25.75;48.48
68807;BME280;55800;54.272;18.558;2023-06-24T09:23:17;101345.81;;;25.81;48.08
68807;BME280;55800;54.272;18.558;2023-06-24T09:25:56;101341.47;;;25.88;48.86
68807;BME280;55800;54.272;18.558;2023-06-24T09:28:27;101343.91;;;26.00;48.60
68807;BME280;55800;54.272;18.558;2023-06-24T09:31:06;101354.59;;;26.03;48.18
68807;BME280;55800;54.272;18.558;2023-06-24T09:33:48;101352.72;;;25.94;47.47
68807;BME280;55800;54.272;18.558;2023-06-24T09:36:17;101346.34;;;25.94;46.89
68807;BME280;55800;54.272;18.558;2023-06-24T09:38:46;101357.31;;;25.94;47.34
68807;BME280;55800;54.272;18.558;2023-06-24T09:41:16;101344.34;;;26.05;48.03
68807;BME280;55800;54.272;18.558;2023-06-24T09:43:45;101351.00;;;26.12;47.61
68807;BME280;55800;54.272;18.558;2023-06-24T09:46:16;101339.03;;;26.13;47.23
68807;BME280;55800;54.272;18.558;2023-06-24T09:48:47;101342.59;;;26.23;47.94
68807;BME280;55800;54.272;18.558;2023-06-24T09:51:17;101345.22;;;26.25;47.17
68807;BME280;55800;54.272;18.558;2023-06-24T09:53:47;101343.91;;;26.29;47.19
68807;BME280;55800;54.272;18.558;2023-06-24T09:56:18;101343.75;;;26.30;47.27
68807;BME280;55800;54.272;18.558;2023-06-24T09:58:48;101343.19;;;26.17;46.16
68807;BME280;55800;54.272;18.558;2023-06-24T10:01:18;101339.16;;;26.21;46.69
68807;BME280;55800;54.272;18.558;2023-06-24T10:03:49;101337.13;;;26.23;46.12
68807;BME280;55800;54.272;18.558;2023-06-24T10:06:19;101346.81;;;26.27;46.40
68807;BME280;55800;54.272;18.558;2023-06-24T10:08:49;101339.41;;;26.38;46.47
68807;BME280;55800;54.272;18.558;2023-06-24T10:11:19;101340.41;;;26.37;47.07
68807;BME280;55800;54.272;18.558;2023-06-24T10:13:48;101345.19;;;26.35;46.35
68807;BME280;55800;54.272;18.558;2023-06-24T10:16:17;101350.66;;;26.35;46.00
68807;BME280;55800;54.272;18.558;2023-06-24T10:18:48;101337.66;;;26.46;46.33
68807;BME280;55800;54.272;18.558;2023-06-24T10:21:18;101343.00;;;26.48;46.10
68807;BME280;55800;54.272;18.558;2023-06-24T10:23:53;101345.03;;;26.46;45.79
68807;BME280;55800;54.272;18.558;2023-06-24T10:26:24;101350.63;;;26.54;46.33
68807;BME280;55800;54.272;18.558;2023-06-24T10:29:14;101349.50;;;26.47;44.91
68807;BME280;55800;54.272;18.558;2023-06-24T10:31:52;101354.13;;;26.46;45.34
68807;BME280;55800;54.272;18.558;2023-06-24T10:34:38;101348.19;;;26.41;45.40
68807;BME280;55800;54.272;18.558;2023-06-24T10:37:13;101344.03;;;26.47;45.88
68807;BME280;55800;54.272;18.558;2023-06-24T10:39:47;101347.06;;;26.44;45.02
68807;BME280;55800;54.272;18.558;2023-06-24T10:42:31;101347.75;;;26.46;45.97
68807;BME280;55800;54.272;18.558;2023-06-24T10:45:13;101339.09;;;26.50;45.69
68807;BME280;55800;54.272;18.558;2023-06-24T10:47:44;101341.69;;;26.52;44.96
68807;BME280;55800;54.272;18.558;2023-06-24T10:50:17;101340.25;;;26.57;45.48
68807;BME280;55800;54.272;18.558;2023-06-24T10:52:49;101335.59;;;26.58;45.29
68807;BME280;55800;54.272;18.558;2023-06-24T10:55:23;101340.47;;;26.64;44.96
68807;BME280;55800;54.272;18.558;2023-06-24T10:57:55;101339.63;;;26.63;44.08
68807;BME280;55800;54.272;18.558;2023-06-24T11:00:39;101342.81;;;26.59;44.65
68807;BME280;55800;54.272;18.558;2023-06-24T11:03:09;101337.00;;;26.71;44.37
68807;BME280;55800;54.272;18.558;2023-06-24T11:05:41;101341.03;;;26.77;44.71
68807;BME280;55800;54.272;18.558;2023-06-24T11:08:11;101345.63;;;26.86;44.19
68807;BME280;55800;54.272;18.558;2023-06-24T11:10:46;101340.69;;;26.89;43.49
68807;BME280;55800;54.272;18.558;2023-06-24T11:13:15;101350.50;;;26.92;43.75
68807;BME280;55800;54.272;18.558;2023-06-24T11:15:48;101336.59;;;27.03;43.73
68807;BME280;55800;54.272;18.558;2023-06-24T11:18:18;101350.41;;;27.11;43.61
68807;BME280;55800;54.272;18.558;2023-06-24T11:20:48;101345.19;;;27.18;42.70
68807;BME280;55800;54.272;18.558;2023-06-24T11:23:22;101343.41;;;27.26;43.78
68807;BME280;55800;54.272;18.558;2023-06-24T11:25:53;101339.75;;;27.35;43.73
68807;BME280;55800;54.272;18.558;2023-06-24T11:28:24;101344.78;;;27.40;43.04
68807;BME280;55800;54.272;18.558;2023-06-24T11:30:54;101343.38;;;27.36;42.37
68807;BME280;55800;54.272;18.558;2023-06-24T11:33:27;101351.47;;;27.37;42.33
68807;BME280;55800;54.272;18.558;2023-06-24T11:35:58;101342.19;;;27.38;42.90
68807;BME280;55800;54.272;18.558;2023-06-24T11:38:28;101356.63;;;27.40;42.73
68807;BME280;55800;54.272;18.558;2023-06-24T11:41:00;101346.56;;;27.31;41.91
68807;BME280;55800;54.272;18.558;2023-06-24T11:43:29;101356.09;;;27.37;42.76
68807;BME280;55800;54.272;18.558;2023-06-24T11:45:58;101352.63;;;27.35;41.87
68807;BME280;55800;54.272;18.558;2023-06-24T11:48:28;101359.25;;;27.42;42.14
68807;BME280;55800;54.272;18.558;2023-06-24T11:50:59;101354.91;;;27.39;41.42
68807;BME280;55800;54.272;18.558;2023-06-24T11:53:40;101351.13;;;27.40;42.02
68807;BME280;55800;54.272;18.558;2023-06-24T11:56:10;101354.28;;;27.45;41.80
68807;BME280;55800;54.272;18.558;2023-06-24T11:58:39;101357.75;;;27.47;41.56
68807;BME280;55800;54.272;18.558;2023-06-24T12:01:11;101349.81;;;27.44;40.80
68807;BME280;55800;54.272;18.558;2023-06-24T12:03:42;101351.47;;;27.37;41.40
68807;BME280;55800;54.272;18.558;2023-06-24T12:06:14;101357.53;;;27.31;41.81
68807;BME280;55800;54.272;18.558;2023-06-24T12:08:43;101364.75;;;27.32;42.01
68807;BME280;55800;54.272;18.558;2023-06-24T12:11:19;101359.00;;;27.26;42.02
68807;BME280;55800;54.272;18.558;2023-06-24T12:13:49;101363.94;;;27.22;41.97
68807;BME280;55800;54.272;18.558;2023-06-24T12:16:18;101369.19;;;27.16;41.99
68807;BME280;55800;54.272;18.558;2023-06-24T12:18:48;101367.75;;;27.12;42.25
68807;BME280;55800;54.272;18.558;2023-06-24T12:21:18;101371.66;;;27.09;41.84
68807;BME280;55800;54.272;18.558;2023-06-24T12:23:48;101374.72;;;27.06;42.62
68807;BME280;55800;54.272;18.558;2023-06-24T12:26:17;101371.84;;;26.98;42.09
68807;BME280;55800;54.272;18.558;2023-06-24T12:28:47;101373.59;;;26.99;42.54
68807;BME280;55800;54.272;18.558;2023-06-24T12:31:16;101368.91;;;26.82;42.40
68807;BME280;55800;54.272;18.558;2023-06-24T12:33:45;101377.75;;;26.76;42.92
68807;BME280;55800;54.272;18.558;2023-06-24T12:36:14;101376.72;;;26.67;43.05
68807;BME280;55800;54.272;18.558;2023-06-24T12:38:45;101389.63;;;26.48;42.73
68807;BME280;55800;54.272;18.558;2023-06-24T12:41:14;101382.66;;;26.53;43.44
68807;BME280;55800;54.272;18.558;2023-06-24T12:43:44;101382.97;;;26.41;43.27
68807;BME280;55800;54.272;18.558;2023-06-24T12:46:13;101380.56;;;26.38;43.11
68807;BME280;55800;54.272;18.558;2023-06-24T12:48:42;101388.06;;;26.36;43.40
68807;BME280;55800;54.272;18.558;2023-06-24T12:51:12;101400.91;;;26.35;43.80
68807;BME280;55800;54.272;18.558;2023-06-24T12:53:41;101386.16;;;26.36;43.33
68807;BME280;55800;54.272;18.558;2023-06-24T12:56:12;101389.53;;;26.20;42.33
68807;BME280;55800;54.272;18.558;2023-06-24T12:58:41;101393.13;;;26.21;43.12
68807;BME280;55800;54.272;18.558;2023-06-24T13:01:10;101391.25;;;26.31;43.45
68807;BME280;55800;54.272;18.558;2023-06-24T13:03:42;101406.38;;;26.35;43.57